リヤド の空港の天気 - METARとTAF

キング・ハーリド国際空港(リヤド) ( OERK / RUH ) - サウジアラビア リヤド
飛行場実況気象(Metar)
観測時間05/21 01:00 AST (05/20 22:00 UTC)
風向・風速南南東 3m/s
視程7000m
天気現象
なし
気温26℃
湿度42%
気圧1012hPa
METAROERK 202200Z 16006KT 7000 NSC 26/12 Q1012 NOSIG
過去の天気等 Google飛行場航空写真 Wunderground天気予報

過去48時間のMETAR

飛行場予報(TAF)
発表時間: 5/20 20:00 AST (5/20 17:00 UTC)
予報対象時間: 20日21時 AST ~ 22日3時 AST
風向・風速南 7m/s
視程8000m
全天の4割程度の雲 雲底高度 1220m
全天の4割程度の雲 雲底高度 3050m
20日21時 AST ~ 21日9時 AST に一時的に
視程5000m
天気現象高い風塵 雷雨
少しの積乱雲 雲底高度 1070m
TAF OERK 201700Z 2018/2124 18014KT 8000 SCT040 SCT100
TEMPO 2018/2106 5000 BLDU TSRA FEW035CB